Time;durP1;ratioP1;P1;durP2;ratioP2;P2;SDS_P1;SDS_P2;PMS_P1;PMS_P2;Temp;Humidity;BMP_temperature;BMP_pressure;BME280_temperature;BME280_humidity;BME280_pressure;Samples;Min_cycle;Max_cycle;Signal;HPM_P1;HPM_P2
2022/07/24 00:00:26;;;;;;;;;;;20.50;99.90;;;;;;5094590;28;20323;-66
2022/07/24 00:02:52;;;;;;;;;;;20.40;99.90;;;;;;5090732;28;20316;-66
2022/07/24 00:05:17;;;;;;;;;;;20.40;99.90;;;;;;5100603;28;19951;-66
2022/07/24 00:07:43;;;;;;;;;;;20.30;99.90;;;;;;5103707;28;19919;-66
2022/07/24 00:10:09;;;;;;;;;;;20.20;99.90;;;;;;5095457;28;19965;-66
2022/07/24 00:12:35;;;;;;;;;;;20.30;99.90;;;;;;5095900;28;20002;-65
2022/07/24 00:15:01;;;;;;;;;;;20.30;99.90;;;;;;5101649;28;20002;-65
2022/07/24 00:17:26;;;;;;;;;;;20.30;99.90;;;;;;5093977;28;19916;-67
2022/07/24 00:19:52;;;;;;;;;;;20.40;99.90;;;;;;5099854;28;19912;-66
2022/07/24 00:22:17;;;;;;;;;;;20.40;99.90;;;;;;5101724;28;19926;-66
2022/07/24 00:24:43;;;;;;;;;;;20.40;99.90;;;;;;5098167;28;19916;-66
2022/07/24 00:27:08;;;;;;;;;;;20.40;99.90;;;;;;5099261;28;19922;-65
2022/07/24 00:29:34;;;;;;;;;;;20.60;99.90;;;;;;5096534;28;19912;-65
2022/07/24 00:31:59;;;;;;;;;;;20.60;99.90;;;;;;5093992;28;19919;-66
2022/07/24 00:34:25;;;;;;;;;;;20.50;99.90;;;;;;5100534;28;19912;-65
2022/07/24 00:36:50;;;;;;;;;;;20.20;99.90;;;;;;5099781;28;19912;-65
2022/07/24 00:39:16;;;;;;;;;;;20.10;99.90;;;;;;5099994;28;20002;-65
2022/07/24 00:41:42;;;;;;;;;;;20.10;99.90;;;;;;5100397;28;20278;-65
2022/07/24 00:44:12;;;;;;;;;;;19.80;99.90;;;;;;5096206;28;19916;-65
2022/07/24 00:46:39;;;;;;;;;;;19.90;99.90;;;;;;5098835;28;20370;-65
2022/07/24 00:49:05;;;;;;;;;;;20.00;99.90;;;;;;5086315;28;19919;-66
2022/07/24 00:51:31;;;;;;;;;;;19.90;99.90;;;;;;5103062;28;19916;-67
2022/07/24 00:53:57;;;;;;;;;;;20.00;99.90;;;;;;5099879;28;19973;-67
2022/07/24 00:56:22;;;;;;;;;;;19.90;99.90;;;;;;5100237;28;20285;-65
2022/07/24 00:58:48;;;;;;;;;;;19.80;99.90;;;;;;5100711;28;19917;-65
2022/07/24 01:01:18;;;;;;;;;;;19.60;99.90;;;;;;5076877;28;19912;-65
2022/07/24 01:03:43;;;;;;;;;;;19.60;99.90;;;;;;5102668;28;20882;-65
2022/07/24 01:06:09;;;;;;;;;;;19.70;99.90;;;;;;5096085;28;19920;-65
2022/07/24 01:08:36;;;;;;;;;;;19.80;99.90;;;;;;5093409;28;19912;-64
2022/07/24 01:11:02;;;;;;;;;;;19.90;99.90;;;;;;5077104;28;19918;-65
2022/07/24 01:13:29;;;;;;;;;;;20.10;99.90;;;;;;5088479;28;20018;-66
2022/07/24 01:15:55;;;;;;;;;;;20.10;99.90;;;;;;5084924;28;19916;-66
2022/07/24 01:18:20;;;;;;;;;;;20.00;99.90;;;;;;5094840;28;20284;-65
2022/07/24 01:20:47;;;;;;;;;;;19.80;99.90;;;;;;5091655;28;19970;-65
2022/07/24 01:23:13;;;;;;;;;;;19.60;99.90;;;;;;5072551;28;20023;-65
2022/07/24 01:25:39;;;;;;;;;;;19.60;99.90;;;;;;5092936;28;19958;-66
2022/07/24 01:28:05;;;;;;;;;;;19.50;99.90;;;;;;5096606;28;20311;-65
2022/07/24 01:30:31;;;;;;;;;;;19.50;99.90;;;;;;5100684;28;19912;-66
2022/07/24 01:32:57;;;;;;;;;;;19.40;99.90;;;;;;5090097;28;19920;-66
2022/07/24 01:35:23;;;;;;;;;;;19.50;99.90;;;;;;5106926;28;20002;-65
2022/07/24 01:37:48;;;;;;;;;;;19.50;99.90;;;;;;5095477;28;19999;-66
2022/07/24 01:40:14;;;;;;;;;;;19.50;99.90;;;;;;5101847;28;19919;-66
2022/07/24 01:42:39;;;;;;;;;;;19.60;99.90;;;;;;5093627;28;20312;-65
2022/07/24 01:45:05;;;;;;;;;;;19.70;99.90;;;;;;5091441;28;20316;-66
2022/07/24 01:47:31;;;;;;;;;;;19.50;99.90;;;;;;5095885;28;19919;-66
2022/07/24 01:49:56;;;;;;;;;;;19.40;99.90;;;;;;5097658;28;19935;-66
2022/07/24 01:52:25;;;;;;;;;;;19.30;99.90;;;;;;5094429;28;20551;-65
2022/07/24 01:54:51;;;;;;;;;;;19.50;99.90;;;;;;5098429;28;19912;-66
2022/07/24 01:57:17;;;;;;;;;;;19.60;99.90;;;;;;5103287;28;20370;-65
2022/07/24 01:59:42;;;;;;;;;;;19.70;99.90;;;;;;5106785;28;19912;-66
2022/07/24 02:02:08;;;;;;;;;;;19.80;99.90;;;;;;5097295;28;20391;-66
2022/07/24 02:04:33;;;;;;;;;;;19.90;99.90;;;;;;5098836;28;19924;-65
2022/07/24 02:06:59;;;;;;;;;;;19.80;99.90;;;;;;5111309;28;19912;-66
2022/07/24 02:09:25;;;;;;;;;;;19.90;99.90;;;;;;5096289;28;19912;-64
2022/07/24 02:11:51;;;;;;;;;;;20.00;99.90;;;;;;5095200;28;19957;-66
2022/07/24 02:14:17;;;;;;;;;;;20.20;99.90;;;;;;5099728;28;19919;-66
2022/07/24 02:16:42;;;;;;;;;;;20.00;99.90;;;;;;5100278;28;19911;-66
2022/07/24 02:19:08;;;;;;;;;;;20.00;99.90;;;;;;5109843;28;19962;-66
2022/07/24 02:21:33;;;;;;;;;;;20.00;99.90;;;;;;5102817;28;19928;-66
2022/07/24 02:23:59;;;;;;;;;;;20.00;99.90;;;;;;5098268;28;19920;-65
2022/07/24 02:26:24;;;;;;;;;;;19.90;99.90;;;;;;5100955;28;19920;-67
2022/07/24 02:28:50;;;;;;;;;;;20.00;99.90;;;;;;5096305;28;19912;-65
2022/07/24 02:31:16;;;;;;;;;;;20.00;99.90;;;;;;5099592;28;19911;-66
2022/07/24 02:33:42;;;;;;;;;;;19.80;99.90;;;;;;5101398;28;19916;-66
2022/07/24 02:36:07;;;;;;;;;;;19.80;99.90;;;;;;5102004;28;20281;-65
2022/07/24 02:38:33;;;;;;;;;;;19.80;99.90;;;;;;5095952;28;19916;-65
2022/07/24 02:40:59;;;;;;;;;;;19.80;99.90;;;;;;5100256;28;19965;-66
2022/07/24 02:43:24;;;;;;;;;;;20.00;99.90;;;;;;5101324;28;20026;-65
2022/07/24 02:45:50;;;;;;;;;;;19.90;99.90;;;;;;5077917;28;19919;-65
2022/07/24 02:48:16;;;;;;;;;;;20.00;99.90;;;;;;5101037;28;19912;-66
2022/07/24 02:50:44;;;;;;;;;;;19.80;99.90;;;;;;5098954;28;19916;-65
2022/07/24 02:53:10;;;;;;;;;;;19.80;99.90;;;;;;5099398;28;20382;-65
2022/07/24 02:55:35;;;;;;;;;;;19.70;99.90;;;;;;5083244;28;19977;-65
2022/07/24 02:58:01;;;;;;;;;;;19.90;99.90;;;;;;5097609;28;19919;-65
2022/07/24 03:00:26;;;;;;;;;;;20.10;99.90;;;;;;5100867;28;19912;-66
2022/07/24 03:02:52;;;;;;;;;;;20.10;99.90;;;;;;5103595;28;19971;-66
2022/07/24 03:05:18;;;;;;;;;;;19.90;99.90;;;;;;5102296;28;19916;-65
2022/07/24 03:07:43;;;;;;;;;;;19.90;99.90;;;;;;5103447;28;19919;-65
2022/07/24 03:10:10;;;;;;;;;;;19.70;99.90;;;;;;5098295;28;20014;-65
2022/07/24 03:12:36;;;;;;;;;;;19.60;99.90;;;;;;5098213;28;20334;-65
2022/07/24 03:15:02;;;;;;;;;;;19.70;99.90;;;;;;5100484;28;19916;-66
2022/07/24 03:17:27;;;;;;;;;;;19.80;99.90;;;;;;5101472;28;20274;-65
2022/07/24 03:19:53;;;;;;;;;;;19.80;99.90;;;;;;5102045;28;19916;-66
2022/07/24 03:22:19;;;;;;;;;;;19.70;99.90;;;;;;5097696;28;19995;-66
2022/07/24 03:24:44;;;;;;;;;;;19.80;99.90;;;;;;5099206;28;20277;-65
2022/07/24 03:27:10;;;;;;;;;;;19.80;99.90;;;;;;5106193;28;19916;-66
2022/07/24 03:29:36;;;;;;;;;;;19.80;99.90;;;;;;5103811;28;19912;-66
2022/07/24 03:32:01;;;;;;;;;;;19.70;99.90;;;;;;5096588;28;19926;-65
2022/07/24 03:34:27;;;;;;;;;;;19.60;99.90;;;;;;5077352;28;19912;-66
2022/07/24 03:36:52;;;;;;;;;;;19.50;99.90;;;;;;5096894;28;19912;-66
2022/07/24 03:39:18;;;;;;;;;;;19.30;99.90;;;;;;5090901;28;19912;-66
2022/07/24 03:41:44;;;;;;;;;;;19.40;99.90;;;;;;5096576;28;19920;-66
2022/07/24 03:44:09;;;;;;;;;;;19.50;99.90;;;;;;5091842;28;19927;-66
2022/07/24 03:46:35;;;;;;;;;;;19.50;99.90;;;;;;5089676;28;20285;-66
2022/07/24 03:49:00;;;;;;;;;;;19.40;99.90;;;;;;5096518;28;20363;-66
2022/07/24 03:51:26;;;;;;;;;;;19.30;99.90;;;;;;5078157;28;19913;-65
2022/07/24 03:53:52;;;;;;;;;;;19.30;99.90;;;;;;5093635;28;19928;-66
2022/07/24 03:56:17;;;;;;;;;;;19.20;99.90;;;;;;5092816;28;20285;-65
2022/07/24 03:58:43;;;;;;;;;;;19.30;99.90;;;;;;5092552;28;19916;-65
2022/07/24 04:01:09;;;;;;;;;;;19.40;99.90;;;;;;5097255;28;20664;-65
2022/07/24 04:03:34;;;;;;;;;;;19.40;99.90;;;;;;5092802;28;20664;-65
2022/07/24 04:06:01;;;;;;;;;;;19.40;99.90;;;;;;5094404;28;19923;-66
2022/07/24 04:08:26;;;;;;;;;;;19.20;99.90;;;;;;5098969;28;19919;-65
2022/07/24 04:10:56;;;;;;;;;;;19.30;99.90;;;;;;5099567;28;19923;-66
2022/07/24 04:13:26;;;;;;;;;;;19.30;99.90;;;;;;5097748;28;20128;-66
2022/07/24 04:15:52;;;;;;;;;;;19.00;99.90;;;;;;5095123;28;19964;-66
2022/07/24 04:18:17;;;;;;;;;;;19.10;99.90;;;;;;5092171;28;19912;-66
2022/07/24 04:20:43;;;;;;;;;;;19.30;99.90;;;;;;5095487;28;19919;-66
2022/07/24 04:23:08;;;;;;;;;;;19.20;99.90;;;;;;5094071;28;20010;-65
2022/07/24 04:25:34;;;;;;;;;;;19.20;99.90;;;;;;5094232;28;19923;-66
2022/07/24 04:28:03;;;;;;;;;;;19.10;99.90;;;;;;5097324;28;20321;-66
2022/07/24 04:30:28;;;;;;;;;;;19.30;99.90;;;;;;5095243;28;20010;-65
2022/07/24 04:32:54;;;;;;;;;;;19.40;99.90;;;;;;5091724;28;20203;-65
2022/07/24 04:35:20;;;;;;;;;;;19.40;99.90;;;;;;5092770;28;19912;-66
2022/07/24 04:37:45;;;;;;;;;;;19.40;99.90;;;;;;5093553;28;19919;-65
2022/07/24 04:40:12;;;;;;;;;;;19.30;99.90;;;;;;5099724;28;19916;-67
2022/07/24 04:42:37;;;;;;;;;;;19.30;99.90;;;;;;5097620;28;20006;-65
2022/07/24 04:45:04;;;;;;;;;;;19.30;99.90;;;;;;5096481;28;20022;-66
2022/07/24 04:47:30;;;;;;;;;;;19.20;99.90;;;;;;5097362;28;19948;-65
2022/07/24 04:49:56;;;;;;;;;;;19.30;99.90;;;;;;5095223;28;19974;-66
2022/07/24 04:52:21;;;;;;;;;;;19.40;99.90;;;;;;5099782;28;19912;-66
2022/07/24 04:54:47;;;;;;;;;;;19.30;99.90;;;;;;5095231;28;19912;-66
2022/07/24 04:57:12;;;;;;;;;;;19.30;99.90;;;;;;5096440;28;19923;-66
2022/07/24 04:59:38;;;;;;;;;;;19.40;99.90;;;;;;5096953;28;20277;-65
2022/07/24 05:02:03;;;;;;;;;;;19.30;99.90;;;;;;5100308;28;20359;-66
2022/07/24 05:04:29;;;;;;;;;;;19.20;99.90;;;;;;5095949;28;19982;-66
2022/07/24 05:06:54;;;;;;;;;;;19.30;99.90;;;;;;5099909;28;20887;-66
2022/07/24 05:09:20;;;;;;;;;;;19.40;99.90;;;;;;5097670;28;19916;-66
2022/07/24 05:11:45;;;;;;;;;;;19.50;99.90;;;;;;5093130;28;19981;-66
2022/07/24 05:14:11;;;;;;;;;;;19.50;99.90;;;;;;5095302;28;19920;-66
2022/07/24 05:16:36;;;;;;;;;;;19.50;99.90;;;;;;5098039;28;19912;-66
2022/07/24 05:19:02;;;;;;;;;;;19.50;99.90;;;;;;5094712;28;19919;-66
2022/07/24 05:21:28;;;;;;;;;;;19.60;99.90;;;;;;5097513;28;20402;-66
2022/07/24 05:23:53;;;;;;;;;;;19.50;99.90;;;;;;5080076;28;19920;-66
2022/07/24 05:26:19;;;;;;;;;;;19.60;99.90;;;;;;5076091;28;19920;-67
2022/07/24 05:28:44;;;;;;;;;;;19.60;99.90;;;;;;5090143;28;19920;-66
2022/07/24 05:31:10;;;;;;;;;;;19.60;99.90;;;;;;5098541;28;19922;-67
2022/07/24 05:33:36;;;;;;;;;;;19.50;99.90;;;;;;5099986;28;20362;-65
2022/07/24 05:36:02;;;;;;;;;;;19.60;99.90;;;;;;5100752;28;19965;-65
2022/07/24 05:38:28;;;;;;;;;;;19.70;99.90;;;;;;5098239;28;20278;-66
2022/07/24 05:40:55;;;;;;;;;;;19.80;99.90;;;;;;5098899;28;20006;-66
2022/07/24 05:43:21;;;;;;;;;;;19.90;99.90;;;;;;5099291;28;19920;-66
2022/07/24 05:45:46;;;;;;;;;;;19.80;99.90;;;;;;5097740;28;20235;-66
2022/07/24 05:48:12;;;;;;;;;;;19.70;99.90;;;;;;5098549;28;19912;-66
2022/07/24 05:50:37;;;;;;;;;;;19.70;99.90;;;;;;5098380;28;19912;-66
2022/07/24 05:53:03;;;;;;;;;;;19.80;99.90;;;;;;5097872;28;20282;-66
2022/07/24 05:55:29;;;;;;;;;;;19.90;99.90;;;;;;5099724;28;20010;-65
2022/07/24 05:57:55;;;;;;;;;;;19.90;99.90;;;;;;5102866;28;20033;-66
2022/07/24 06:00:21;;;;;;;;;;;19.70;99.90;;;;;;5100601;28;20447;-65
2022/07/24 06:02:46;;;;;;;;;;;19.80;99.90;;;;;;5098859;28;19951;-65
2022/07/24 06:05:13;;;;;;;;;;;19.90;99.90;;;;;;5103353;28;19920;-64
2022/07/24 06:07:39;;;;;;;;;;;19.90;99.90;;;;;;5098436;28;20366;-66
2022/07/24 06:10:04;;;;;;;;;;;20.00;99.90;;;;;;5100679;28;19918;-66
2022/07/24 06:12:30;;;;;;;;;;;19.90;99.90;;;;;;5096531;28;19912;-66
2022/07/24 06:14:56;;;;;;;;;;;19.60;99.90;;;;;;5097854;28;20093;-66
2022/07/24 06:17:21;;;;;;;;;;;19.50;99.90;;;;;;5097965;28;19916;-65
2022/07/24 06:19:47;;;;;;;;;;;19.50;99.90;;;;;;5098887;28;19919;-64
2022/07/24 06:22:12;;;;;;;;;;;19.60;99.90;;;;;;5100668;28;19920;-66
2022/07/24 06:24:38;;;;;;;;;;;19.70;99.90;;;;;;5096967;28;19920;-65
2022/07/24 06:27:04;;;;;;;;;;;19.90;99.90;;;;;;5100392;28;19916;-66
2022/07/24 06:29:30;;;;;;;;;;;19.90;99.90;;;;;;5097298;28;19912;-66
2022/07/24 06:31:56;;;;;;;;;;;19.90;99.90;;;;;;5095466;28;20349;-66
2022/07/24 06:34:23;;;;;;;;;;;19.80;99.90;;;;;;5100091;28;19912;-65
2022/07/24 06:36:50;;;;;;;;;;;19.60;99.90;;;;;;5099675;28;20007;-65
2022/07/24 06:39:15;;;;;;;;;;;19.60;99.90;;;;;;5097994;28;19920;-66
2022/07/24 06:41:41;;;;;;;;;;;19.60;99.90;;;;;;5099631;28;19912;-65
2022/07/24 06:44:06;;;;;;;;;;;19.60;99.90;;;;;;5094879;28;19989;-65
2022/07/24 06:46:32;;;;;;;;;;;19.80;99.90;;;;;;5093489;28;19969;-65
2022/07/24 06:48:57;;;;;;;;;;;19.70;99.90;;;;;;5098138;28;19912;-65
2022/07/24 06:51:23;;;;;;;;;;;19.80;99.90;;;;;;5097637;28;19912;-66
2022/07/24 06:53:48;;;;;;;;;;;20.00;99.90;;;;;;5100388;28;20226;-66
2022/07/24 06:56:14;;;;;;;;;;;20.20;99.90;;;;;;5101670;28;20018;-66
2022/07/24 06:58:40;;;;;;;;;;;20.40;99.90;;;;;;5096504;28;19958;-66
2022/07/24 07:01:05;;;;;;;;;;;20.30;99.90;;;;;;5097967;28;20358;-67
2022/07/24 07:03:31;;;;;;;;;;;20.10;99.90;;;;;;5098486;28;20362;-66
2022/07/24 07:05:56;;;;;;;;;;;20.40;99.90;;;;;;5090514;28;19915;-66
2022/07/24 07:08:22;;;;;;;;;;;20.20;99.90;;;;;;5102198;28;19912;-66
2022/07/24 07:10:47;;;;;;;;;;;20.20;99.90;;;;;;5094503;28;19939;-66
2022/07/24 07:13:13;;;;;;;;;;;20.10;99.90;;;;;;5090007;28;19923;-66
2022/07/24 07:15:39;;;;;;;;;;;20.10;99.90;;;;;;5094360;28;20081;-67
2022/07/24 07:18:04;;;;;;;;;;;20.30;99.90;;;;;;5094977;28;19916;-67
2022/07/24 07:20:30;;;;;;;;;;;20.40;99.90;;;;;;5098084;28;20313;-67
2022/07/24 07:22:55;;;;;;;;;;;20.30;99.90;;;;;;5078570;28;19928;-66
2022/07/24 07:25:21;;;;;;;;;;;20.40;99.90;;;;;;5079411;28;19920;-66
2022/07/24 07:27:46;;;;;;;;;;;20.40;99.90;;;;;;5080457;28;19932;-67
2022/07/24 07:30:12;;;;;;;;;;;20.00;99.90;;;;;;5079931;28;19970;-67
2022/07/24 07:32:38;;;;;;;;;;;20.20;99.90;;;;;;5071686;28;19912;-66
2022/07/24 07:35:04;;;;;;;;;;;20.00;99.90;;;;;;5076363;28;20400;-66
2022/07/24 07:37:29;;;;;;;;;;;20.10;99.90;;;;;;5078444;28;20278;-66
2022/07/24 07:39:55;;;;;;;;;;;20.00;99.90;;;;;;5076620;28;19918;-67
2022/07/24 07:42:21;;;;;;;;;;;20.20;99.90;;;;;;5075456;28;19912;-66
2022/07/24 07:44:48;;;;;;;;;;;20.10;99.90;;;;;;5072633;28;20353;-66
2022/07/24 07:47:13;;;;;;;;;;;19.90;99.90;;;;;;5074522;28;20190;-67
2022/07/24 07:49:39;;;;;;;;;;;20.20;99.90;;;;;;5076807;28;20022;-66
2022/07/24 07:52:05;;;;;;;;;;;20.20;99.90;;;;;;5075387;28;19912;-66
2022/07/24 07:54:30;;;;;;;;;;;20.30;99.90;;;;;;5074446;28;19913;-66
2022/07/24 07:56:56;;;;;;;;;;;20.50;99.90;;;;;;5079668;28;20337;-66
2022/07/24 07:59:21;;;;;;;;;;;20.50;99.90;;;;;;5073087;28;19932;-66
2022/07/24 08:01:47;;;;;;;;;;;20.60;99.90;;;;;;5074452;28;20389;-66
2022/07/24 08:04:13;;;;;;;;;;;20.70;99.90;;;;;;5072204;28;19920;-66
2022/07/24 08:06:38;;;;;;;;;;;20.70;99.90;;;;;;5077868;28;19925;-66
2022/07/24 08:09:04;;;;;;;;;;;21.10;99.90;;;;;;5074974;28;19974;-66
2022/07/24 08:11:29;;;;;;;;;;;21.40;99.90;;;;;;5076964;28;19912;-66
2022/07/24 08:13:55;;;;;;;;;;;21.40;99.90;;;;;;5076827;28;19919;-66
2022/07/24 08:16:21;;;;;;;;;;;21.60;99.90;;;;;;5078205;28;20307;-66
2022/07/24 08:18:46;;;;;;;;;;;21.40;99.90;;;;;;5075865;28;20389;-65
2022/07/24 08:21:12;;;;;;;;;;;21.20;99.90;;;;;;5079321;28;20188;-66
2022/07/24 08:23:37;;;;;;;;;;;21.10;99.90;;;;;;5099079;28;19922;-66
2022/07/24 08:26:03;;;;;;;;;;;21.00;99.90;;;;;;5095723;28;19919;-67
2022/07/24 08:28:28;;;;;;;;;;;21.10;99.90;;;;;;5099489;28;19912;-66
2022/07/24 08:30:54;;;;;;;;;;;21.10;99.90;;;;;;5096581;28;19916;-66
2022/07/24 08:33:20;;;;;;;;;;;20.90;99.90;;;;;;5099202;28;19918;-66
2022/07/24 08:35:45;;;;;;;;;;;20.90;99.90;;;;;;5095186;28;19919;-66
2022/07/24 08:38:11;;;;;;;;;;;21.20;99.90;;;;;;5073382;28;19943;-66
2022/07/24 08:40:38;;;;;;;;;;;21.50;99.90;;;;;;5091302;28;19999;-66
2022/07/24 08:43:04;;;;;;;;;;;21.70;99.90;;;;;;5090946;28;19929;-67
2022/07/24 08:45:31;;;;;;;;;;;21.50;99.90;;;;;;5092778;28;19916;-67
2022/07/24 08:47:57;;;;;;;;;;;21.10;99.90;;;;;;5101183;28;19984;-67
2022/07/24 08:50:22;;;;;;;;;;;21.10;99.90;;;;;;5104764;28;20006;-67
2022/07/24 08:52:48;;;;;;;;;;;21.40;99.90;;;;;;5088571;28;20023;-67
2022/07/24 08:55:14;;;;;;;;;;;21.50;99.90;;;;;;5093956;28;19926;-67
2022/07/24 08:57:40;;;;;;;;;;;21.60;99.90;;;;;;5079067;28;19919;-67
2022/07/24 09:00:06;;;;;;;;;;;21.50;99.90;;;;;;5077441;28;19907;-67
2022/07/24 09:02:33;;;;;;;;;;;21.40;99.90;;;;;;5099051;28;19934;-67
2022/07/24 09:04:59;;;;;;;;;;;21.20;99.90;;;;;;5098786;28;20753;-67
2022/07/24 09:07:26;;;;;;;;;;;21.00;99.90;;;;;;5095468;28;20420;-68
2022/07/24 09:10:03;;;;;;;;;;;20.70;99.90;;;;;;5086871;28;20014;-67
2022/07/24 09:12:33;;;;;;;;;;;20.60;99.90;;;;;;5088428;28;20058;-68
2022/07/24 09:14:59;;;;;;;;;;;21.10;99.90;;;;;;5094907;28;20304;-68
2022/07/24 09:17:25;;;;;;;;;;;21.20;99.90;;;;;;5096673;28;20068;-68
2022/07/24 09:19:52;;;;;;;;;;;21.50;99.90;;;;;;5090548;28;19912;-67
2022/07/24 09:22:41;;;;;;;;;;;21.60;99.90;;;;;;5090913;28;19920;-67
2022/07/24 09:25:33;;;;;;;;;;;21.70;99.90;;;;;;5085769;28;19924;-67
2022/07/24 09:28:00;;;;;;;;;;;21.50;99.90;;;;;;5087129;28;19912;-67
2022/07/24 09:30:33;;;;;;;;;;;21.40;99.90;;;;;;5097957;28;19967;-67
2022/07/24 09:33:00;;;;;;;;;;;21.30;99.90;;;;;;5094759;28;19935;-64
2022/07/24 09:35:29;;;;;;;;;;;21.30;99.90;;;;;;5096767;28;19919;-64
2022/07/24 09:37:56;;;;;;;;;;;21.40;99.90;;;;;;5089364;28;19916;-66
2022/07/24 09:40:27;;;;;;;;;;;21.60;99.90;;;;;;5098713;28;20007;-67
2022/07/24 09:42:55;;;;;;;;;;;21.70;99.90;;;;;;5094459;28;19975;-67
2022/07/24 09:45:21;;;;;;;;;;;21.50;99.90;;;;;;5097343;28;20001;-66
2022/07/24 09:47:52;;;;;;;;;;;21.30;99.90;;;;;;5108027;28;19958;-67
2022/07/24 09:50:17;;;;;;;;;;;21.50;99.90;;;;;;5100805;28;19923;-67
2022/07/24 09:52:44;;;;;;;;;;;21.60;99.90;;;;;;5099993;28;19912;-68
2022/07/24 09:55:19;;;;;;;;;;;21.70;99.90;;;;;;5100061;28;19995;-67
2022/07/24 09:57:45;;;;;;;;;;;22.00;99.90;;;;;;5097424;28;19985;-69
2022/07/24 10:00:10;;;;;;;;;;;21.60;99.90;;;;;;5099680;28;20397;-67
2022/07/24 10:02:36;;;;;;;;;;;21.00;99.90;;;;;;5098517;28;19915;-69
2022/07/24 10:05:03;;;;;;;;;;;21.20;99.90;;;;;;5096256;28;19924;-68
2022/07/24 10:07:30;;;;;;;;;;;21.10;99.90;;;;;;5102304;28;19923;-67
2022/07/24 10:09:56;;;;;;;;;;;21.00;99.90;;;;;;5101230;28;20015;-66
2022/07/24 10:12:23;;;;;;;;;;;20.90;99.90;;;;;;5080317;28;19927;-67
2022/07/24 10:14:50;;;;;;;;;;;21.20;99.90;;;;;;5085859;28;20004;-67
2022/07/24 10:17:16;;;;;;;;;;;21.20;99.90;;;;;;5096001;28;19916;-68
2022/07/24 10:19:45;;;;;;;;;;;21.40;99.90;;;;;;5098706;28;19919;-68
2022/07/24 10:22:21;;;;;;;;;;;21.70;99.90;;;;;;5103776;28;19924;-67
2022/07/24 10:25:09;;;;;;;;;;;21.80;99.90;;;;;;5102136;28;20378;-67
2022/07/24 10:27:36;;;;;;;;;;;21.90;99.90;;;;;;5098763;28;20011;-67
2022/07/24 10:30:11;;;;;;;;;;;22.00;99.90;;;;;;5100234;28;20310;-67
2022/07/24 10:32:37;;;;;;;;;;;21.70;99.90;;;;;;5100666;28;20323;-68
2022/07/24 10:35:03;;;;;;;;;;;21.70;99.90;;;;;;5098874;28;19924;-68
2022/07/24 10:37:47;;;;;;;;;;;21.50;99.90;;;;;;5097488;28;19919;-66
2022/07/24 10:40:31;;;;;;;;;;;21.50;99.90;;;;;;5100241;28;20012;-68
2022/07/24 10:43:06;;;;;;;;;;;21.50;99.90;;;;;;5095476;28;19912;-67
2022/07/24 10:45:32;;;;;;;;;;;21.60;99.90;;;;;;5098916;28;19927;-66
2022/07/24 10:47:58;;;;;;;;;;;21.50;99.90;;;;;;5100282;28;19912;-66
2022/07/24 10:50:44;;;;;;;;;;;21.30;99.90;;;;;;5098676;28;20003;-68
2022/07/24 10:53:22;;;;;;;;;;;21.60;99.90;;;;;;5101549;28;19968;-67
2022/07/24 10:55:48;;;;;;;;;;;21.90;99.90;;;;;;5078652;28;19927;-67
2022/07/24 10:58:15;;;;;;;;;;;21.80;99.90;;;;;;5079704;28;19924;-67
2022/07/24 11:00:48;;;;;;;;;;;21.90;99.90;;;;;;5101678;28;19916;-67
2022/07/24 11:03:19;;;;;;;;;;;22.00;99.90;;;;;;5094818;28;19985;-67
2022/07/24 11:06:04;;;;;;;;;;;21.70;99.90;;;;;;5099814;28;19955;-67
2022/07/24 11:08:31;;;;;;;;;;;21.70;99.90;;;;;;5093986;28;19912;-68
2022/07/24 11:10:59;;;;;;;;;;;21.90;99.90;;;;;;5092705;28;19972;-68
2022/07/24 11:13:31;;;;;;;;;;;21.80;99.90;;;;;;5101127;28;19912;-68
2022/07/24 11:16:15;;;;;;;;;;;21.70;99.90;;;;;;5096292;28;19965;-68
2022/07/24 11:18:41;;;;;;;;;;;21.50;99.90;;;;;;5082619;28;19974;-68
2022/07/24 11:21:07;;;;;;;;;;;21.80;99.90;;;;;;5080216;28;19909;-68
2022/07/24 11:23:33;;;;;;;;;;;21.90;99.90;;;;;;5095677;28;19934;-67
2022/07/24 11:26:22;;;;;;;;;;;22.00;99.90;;;;;;5090393;28;20197;-67
2022/07/24 11:29:06;;;;;;;;;;;22.10;99.90;;;;;;5101687;28;19927;-67
2022/07/24 11:31:31;;;;;;;;;;;22.30;99.90;;;;;;5101507;28;19919;-69
2022/07/24 11:33:57;;;;;;;;;;;22.10;99.90;;;;;;5099458;28;20366;-68
2022/07/24 11:36:23;;;;;;;;;;;21.70;99.90;;;;;;5093653;28;20396;-68
2022/07/24 11:38:50;;;;;;;;;;;21.80;99.90;;;;;;5104693;28;19912;-68
2022/07/24 11:41:16;;;;;;;;;;;21.90;99.90;;;;;;5100053;28;19912;-67
2022/07/24 11:43:51;;;;;;;;;;;21.80;99.90;;;;;;5101416;28;19923;-68
2022/07/24 11:46:32;;;;;;;;;;;21.50;99.90;;;;;;5077817;28;19962;-70
2022/07/24 11:49:04;;;;;;;;;;;21.50;99.90;;;;;;5097515;28;19919;-68
2022/07/24 11:51:30;;;;;;;;;;;21.40;99.90;;;;;;5092712;28;19931;-68
2022/07/24 11:53:56;;;;;;;;;;;21.70;99.90;;;;;;5090715;28;19928;-67
2022/07/24 11:56:22;;;;;;;;;;;21.90;99.90;;;;;;5095602;28;20384;-69
2022/07/24 11:58:47;;;;;;;;;;;21.90;99.90;;;;;;5099854;28;19912;-69
2022/07/24 12:01:20;;;;;;;;;;;21.80;99.90;;;;;;5096146;28;19947;-67
2022/07/24 12:03:50;;;;;;;;;;;21.70;99.90;;;;;;5079641;28;20011;-67
2022/07/24 12:06:16;;;;;;;;;;;21.70;99.90;;;;;;5096179;28;19977;-68
2022/07/24 12:08:41;;;;;;;;;;;21.80;99.90;;;;;;5080908;28;19926;-67
2022/07/24 12:11:07;;;;;;;;;;;22.00;99.90;;;;;;5095300;28;20147;-67
2022/07/24 12:13:33;;;;;;;;;;;21.90;99.90;;;;;;5080887;28;19928;-68
2022/07/24 12:15:58;;;;;;;;;;;22.00;99.90;;;;;;5098416;28;19956;-68
2022/07/24 12:18:24;;;;;;;;;;;22.00;99.90;;;;;;5096360;28;19961;-67
2022/07/24 12:20:50;;;;;;;;;;;22.00;99.90;;;;;;5098929;28;20299;-67
2022/07/24 12:23:18;;;;;;;;;;;22.20;99.90;;;;;;5096940;28;19912;-66
2022/07/24 12:25:44;;;;;;;;;;;22.40;99.90;;;;;;5091146;28;19916;-67
2022/07/24 12:28:18;;;;;;;;;;;22.80;99.90;;;;;;5095832;28;19918;-67
2022/07/24 12:30:43;;;;;;;;;;;22.60;99.90;;;;;;5098041;28;19912;-67
2022/07/24 12:33:15;;;;;;;;;;;22.90;99.90;;;;;;5080706;28;20006;-67
2022/07/24 12:35:56;;;;;;;;;;;23.10;99.90;;;;;;5101413;28;19919;-66
2022/07/24 12:38:24;;;;;;;;;;;23.20;99.90;;;;;;5097192;28;19935;-66
2022/07/24 12:40:50;;;;;;;;;;;23.50;99.90;;;;;;5100214;28;20003;-67
2022/07/24 12:43:15;;;;;;;;;;;23.50;99.90;;;;;;5103316;28;20026;-68
2022/07/24 12:45:41;;;;;;;;;;;23.40;99.90;;;;;;5095196;28;20008;-67
2022/07/24 12:48:18;;;;;;;;;;;23.40;99.90;;;;;;5094504;28;19943;-68
2022/07/24 12:51:01;;;;;;;;;;;23.30;99.90;;;;;;5096260;28;19920;-67
2022/07/24 12:53:28;;;;;;;;;;;23.30;99.90;;;;;;5100889;28;20363;-68
2022/07/24 12:56:10;;;;;;;;;;;23.30;99.90;;;;;;5090295;28;19912;-68
2022/07/24 12:58:51;;;;;;;;;;;23.20;99.90;;;;;;5107985;28;20019;-67
2022/07/24 13:01:17;;;;;;;;;;;23.10;99.90;;;;;;5094294;28;20006;-66
2022/07/24 13:03:43;;;;;;;;;;;23.00;99.90;;;;;;5098474;28;19916;-69
2022/07/24 13:06:08;;;;;;;;;;;22.90;99.90;;;;;;5082742;28;19923;-68
2022/07/24 13:08:34;;;;;;;;;;;23.10;99.90;;;;;;5107593;28;19915;-68
2022/07/24 13:11:00;;;;;;;;;;;23.30;99.90;;;;;;5096769;28;20008;-69
2022/07/24 13:13:25;;;;;;;;;;;23.70;99.90;;;;;;5075732;28;19965;-68
2022/07/24 13:15:51;;;;;;;;;;;23.80;99.90;;;;;;5105220;28;19908;-68
2022/07/24 13:18:16;;;;;;;;;;;23.70;99.90;;;;;;5095143;28;19947;-67
2022/07/24 13:20:42;;;;;;;;;;;23.80;99.90;;;;;;5095351;28;19912;-68
2022/07/24 13:23:07;;;;;;;;;;;24.10;99.90;;;;;;5079704;28;20009;-68
2022/07/24 13:25:33;;;;;;;;;;;24.20;99.90;;;;;;5076708;28;19963;-67
2022/07/24 13:27:58;;;;;;;;;;;24.40;99.90;;;;;;5078545;28;20401;-67
2022/07/24 13:30:24;;;;;;;;;;;24.40;99.90;;;;;;5081360;28;20007;-68
2022/07/24 13:32:50;;;;;;;;;;;24.20;99.90;;;;;;5088034;28;20003;-69
2022/07/24 13:35:15;;;;;;;;;;;24.10;99.90;;;;;;5075004;28;19924;-69
2022/07/24 13:37:41;;;;;;;;;;;24.20;99.90;;;;;;5058432;28;20376;-70
2022/07/24 13:40:07;;;;;;;;;;;24.40;99.90;;;;;;5073230;28;19912;-70
2022/07/24 13:42:34;;;;;;;;;;;24.60;99.90;;;;;;5057781;28;19912;-70
2022/07/24 13:44:59;;;;;;;;;;;24.80;99.90;;;;;;5073090;28;19939;-69
2022/07/24 13:47:25;;;;;;;;;;;24.90;99.90;;;;;;5079045;28;19916;-69
2022/07/24 13:49:50;;;;;;;;;;;24.70;99.90;;;;;;5081946;28;19915;-70
2022/07/24 13:52:16;;;;;;;;;;;24.70;99.90;;;;;;5077197;28;19944;-68
2022/07/24 13:54:41;;;;;;;;;;;24.80;99.90;;;;;;5074202;28;21188;-69
2022/07/24 13:57:07;;;;;;;;;;;25.00;99.90;;;;;;5076449;28;19917;-69
2022/07/24 13:59:33;;;;;;;;;;;25.00;99.90;;;;;;5076881;28;19912;-70
2022/07/24 14:01:58;;;;;;;;;;;25.00;99.90;;;;;;5075218;28;19919;-70
2022/07/24 14:04:24;;;;;;;;;;;25.10;99.90;;;;;;5069751;28;19927;-69
2022/07/24 14:06:50;;;;;;;;;;;25.00;99.90;;;;;;5083423;28;19967;-68
2022/07/24 14:09:18;;;;;;;;;;;25.10;99.40;;;;;;5055917;28;20023;-69
2022/07/24 14:11:44;;;;;;;;;;;24.90;96.80;;;;;;5081877;28;19912;-70
2022/07/24 14:14:10;;;;;;;;;;;24.80;98.90;;;;;;5078030;28;19988;-69